This is the latest recevied weather packets stored in our database for station/object OK1KKY-18. If no packets are shown the sender has not sent any weather packets the latest 10 day(s).
| Time | Temp. | Humidity | Pressure | Rain* | Wind** | Luminosity | Snow |
|---|---|---|---|---|---|---|---|
| 1777714703 | 19.44° C | 28% | 1025.2 hPa | - | - | - | - |
| 1777714103 | 19.44° C | 28% | 1025.2 hPa | - | - | - | - |
| 1777713509 | 18.89° C | 28% | 1025.2 hPa | - | - | - | - |
| 1777712902 | 18.33° C | 28% | 1025.4 hPa | - | - | - | - |
| 1777712302 | 18.89° C | 27% | 1025.4 hPa | - | - | - | - |
| 1777711702 | 18.89° C | 28% | 1025.5 hPa | - | - | - | - |
| 1777711102 | 18.33° C | 31% | 1025.5 hPa | - | - | - | - |
| 1777710502 | 18.33° C | 29% | 1025.6 hPa | - | - | - | - |
| 1777709902 | 18.33° C | 31% | 1025.7 hPa | - | - | - | - |
| 1777709302 | 17.78° C | 31% | 1025.8 hPa | - | - | - | - |
| 1777708702 | 17.78° C | 31% | 1025.8 hPa | - | - | - | - |
| 1777708102 | 17.22° C | 34% | 1025.8 hPa | - | - | - | - |
| 1777707502 | 17.78° C | 35% | 1025.9 hPa | - | - | - | - |
| 1777706902 | 17.22° C | 37% | 1025.9 hPa | - | - | - | - |
| 1777706302 | 16.11° C | 45% | 1025.9 hPa | - | - | - | - |
| 1777705702 | 14.44° C | 49% | 1026 hPa | - | - | - | - |
| 1777705102 | 13.33° C | 53% | 1026.1 hPa | - | - | - | - |
| 1777704502 | 12.22° C | 53% | 1026.2 hPa | - | - | - | - |
| 1777703902 | 11.67° C | 55% | 1026.2 hPa | - | - | - | - |
| 1777703302 | 11.11° C | 57% | 1026.3 hPa | - | - | - | - |
| 1777702702 | 10° C | 60% | 1026.3 hPa | - | - | - | - |
| 1777702102 | 9.44° C | 64% | 1026.2 hPa | - | - | - | - |
| 1777701502 | 8.33° C | 66% | 1026.3 hPa | - | - | - | - |
| 1777700903 | 7.78° C | 68% | 1026.4 hPa | - | - | - | - |
| 1777700309 | 7.22° C | 68% | 1026.3 hPa | - | - | - | - |
* Rain since midnight (hover to see other rain measurements)
** Current wind speed in m/s (hover to see current wind gust speed)